sensor_id;sensor_type;location;lat;lon;timestamp;pressure;altitude;pressure_sealevel;temperature;humidity
41102;BME280;26845;50.190;19.178;2023-03-03T00:01:04;98953.10;;;0.65;58.16
41102;BME280;26845;50.190;19.178;2023-03-03T00:03:29;98956.31;;;0.66;58.32
41102;BME280;26845;50.190;19.178;2023-03-03T00:05:56;98961.47;;;0.64;58.19
41102;BME280;26845;50.190;19.178;2023-03-03T00:08:22;98959.76;;;0.58;58.40
41102;BME280;26845;50.190;19.178;2023-03-03T00:10:48;98952.09;;;0.57;58.58
41102;BME280;26845;50.190;19.178;2023-03-03T00:13:20;98961.38;;;0.53;58.50
41102;BME280;26845;50.190;19.178;2023-03-03T00:15:46;98956.46;;;0.47;58.30
41102;BME280;26845;50.190;19.178;2023-03-03T00:18:20;98956.88;;;0.42;58.15
41102;BME280;26845;50.190;19.178;2023-03-03T00:20:56;98954.31;;;0.36;58.10
41102;BME280;26845;50.190;19.178;2023-03-03T00:23:30;98959.65;;;0.32;58.49
41102;BME280;26845;50.190;19.178;2023-03-03T00:25:57;98960.11;;;0.24;58.39
41102;BME280;26845;50.190;19.178;2023-03-03T00:28:57;98957.67;;;0.21;58.50
41102;BME280;26845;50.190;19.178;2023-03-03T00:31:23;98954.91;;;0.18;58.86
41102;BME280;26845;50.190;19.178;2023-03-03T00:33:51;98948.73;;;0.17;59.15
41102;BME280;26845;50.190;19.178;2023-03-03T00:36:32;98948.54;;;0.21;59.65
41102;BME280;26845;50.190;19.178;2023-03-03T00:41:54;98939.28;;;0.27;59.67
41102;BME280;26845;50.190;19.178;2023-03-03T00:46:50;98941.14;;;0.30;59.86
41102;BME280;26845;50.190;19.178;2023-03-03T00:49:23;98940.33;;;0.30;59.29
41102;BME280;26845;50.190;19.178;2023-03-03T00:51:50;98940.42;;;0.30;59.38
41102;BME280;26845;50.190;19.178;2023-03-03T00:54:16;98940.95;;;0.26;59.37
41102;BME280;26845;50.190;19.178;2023-03-03T00:56:42;98940.16;;;0.18;59.37
41102;BME280;26845;50.190;19.178;2023-03-03T00:59:08;98942.60;;;0.14;59.52
41102;BME280;26845;50.190;19.178;2023-03-03T01:01:34;98939.98;;;0.12;59.30
41102;BME280;26845;50.190;19.178;2023-03-03T01:04:00;98942.65;;;0.10;59.43
41102;BME280;26845;50.190;19.178;2023-03-03T01:06:27;98941.21;;;0.09;59.56
41102;BME280;26845;50.190;19.178;2023-03-03T01:08:53;98938.61;;;0.08;59.65
41102;BME280;26845;50.190;19.178;2023-03-03T01:11:25;98935.96;;;0.06;59.54
41102;BME280;26845;50.190;19.178;2023-03-03T01:13:52;98934.73;;;0.05;59.57
41102;BME280;26845;50.190;19.178;2023-03-03T01:16:19;98937.67;;;0.04;59.65
41102;BME280;26845;50.190;19.178;2023-03-03T01:18:45;98936.45;;;0.03;59.71
41102;BME280;26845;50.190;19.178;2023-03-03T01:21:11;98930.95;;;0.01;59.87
41102;BME280;26845;50.190;19.178;2023-03-03T01:23:37;98924.86;;;-0.01;60.10
41102;BME280;26845;50.190;19.178;2023-03-03T01:26:04;98923.63;;;0.01;60.38
41102;BME280;26845;50.190;19.178;2023-03-03T01:28:32;98922.53;;;0.01;59.98
41102;BME280;26845;50.190;19.178;2023-03-03T01:31:02;98915.87;;;-0.02;60.30
41102;BME280;26845;50.190;19.178;2023-03-03T01:33:28;98911.98;;;-0.02;60.19
41102;BME280;26845;50.190;19.178;2023-03-03T01:35:54;98904.52;;;-0.04;60.49
41102;BME280;26845;50.190;19.178;2023-03-03T01:38:20;98906.83;;;-0.09;60.43
41102;BME280;26845;50.190;19.178;2023-03-03T01:40:55;98901.23;;;-0.10;60.16
41102;BME280;26845;50.190;19.178;2023-03-03T01:43:21;98901.71;;;-0.11;60.42
41102;BME280;26845;50.190;19.178;2023-03-03T01:48:41;98899.96;;;-0.11;60.69
41102;BME280;26845;50.190;19.178;2023-03-03T01:51:17;98900.34;;;-0.13;60.91
41102;BME280;26845;50.190;19.178;2023-03-03T01:54:11;98897.09;;;-0.12;61.28
41102;BME280;26845;50.190;19.178;2023-03-03T01:56:35;98892.79;;;-0.14;61.08
41102;BME280;26845;50.190;19.178;2023-03-03T01:59:10;98888.98;;;-0.16;61.08
41102;BME280;26845;50.190;19.178;2023-03-03T02:01:38;98892.02;;;-0.17;61.13
41102;BME280;26845;50.190;19.178;2023-03-03T02:04:05;98891.09;;;-0.21;60.95
41102;BME280;26845;50.190;19.178;2023-03-03T02:06:38;98887.94;;;-0.23;61.31
41102;BME280;26845;50.190;19.178;2023-03-03T02:09:17;98893.59;;;-0.24;61.27
41102;BME280;26845;50.190;19.178;2023-03-03T02:11:50;98891.55;;;-0.26;61.12
41102;BME280;26845;50.190;19.178;2023-03-03T02:14:17;98893.10;;;-0.28;61.14
41102;BME280;26845;50.190;19.178;2023-03-03T02:16:43;98894.17;;;-0.31;60.86
41102;BME280;26845;50.190;19.178;2023-03-03T02:19:19;98895.20;;;-0.40;60.89
41102;BME280;26845;50.190;19.178;2023-03-03T02:21:48;98897.04;;;-0.47;60.95
41102;BME280;26845;50.190;19.178;2023-03-03T02:24:24;98901.49;;;-0.51;60.86
41102;BME280;26845;50.190;19.178;2023-03-03T02:26:52;98905.91;;;-0.53;61.03
41102;BME280;26845;50.190;19.178;2023-03-03T02:29:18;98899.42;;;-0.56;60.89
41102;BME280;26845;50.190;19.178;2023-03-03T02:31:44;98904.30;;;-0.58;61.01
41102;BME280;26845;50.190;19.178;2023-03-03T02:34:10;98904.27;;;-0.67;61.05
41102;BME280;26845;50.190;19.178;2023-03-03T02:36:38;98904.27;;;-0.75;61.40
41102;BME280;26845;50.190;19.178;2023-03-03T02:39:09;98907.10;;;-0.75;61.44
41102;BME280;26845;50.190;19.178;2023-03-03T02:44:26;98904.11;;;-0.74;61.47
41102;BME280;26845;50.190;19.178;2023-03-03T02:46:53;98905.88;;;-0.74;61.22
41102;BME280;26845;50.190;19.178;2023-03-03T02:49:28;98898.80;;;-0.75;61.27
41102;BME280;26845;50.190;19.178;2023-03-03T02:51:56;98901.23;;;-0.74;61.45
41102;BME280;26845;50.190;19.178;2023-03-03T02:54:24;98907.64;;;-0.76;61.14
41102;BME280;26845;50.190;19.178;2023-03-03T02:56:50;98908.16;;;-0.77;61.14
41102;BME280;26845;50.190;19.178;2023-03-03T02:59:16;98907.05;;;-0.79;61.55
41102;BME280;26845;50.190;19.178;2023-03-03T03:01:42;98903.75;;;-0.81;61.49
41102;BME280;26845;50.190;19.178;2023-03-03T03:04:12;98903.48;;;-0.82;61.43
41102;BME280;26845;50.190;19.178;2023-03-03T03:06:38;98901.95;;;-0.81;61.88
41102;BME280;26845;50.190;19.178;2023-03-03T03:09:05;98895.84;;;-0.81;61.89
41102;BME280;26845;50.190;19.178;2023-03-03T03:11:32;98894.55;;;-0.81;61.92
41102;BME280;26845;50.190;19.178;2023-03-03T03:14:00;98897.25;;;-0.79;61.92
41102;BME280;26845;50.190;19.178;2023-03-03T03:16:25;98895.08;;;-0.78;62.24
41102;BME280;26845;50.190;19.178;2023-03-03T03:18:51;98895.70;;;-0.78;62.24
41102;BME280;26845;50.190;19.178;2023-03-03T03:21:17;98897.09;;;-0.79;62.00
41102;BME280;26845;50.190;19.178;2023-03-03T03:23:44;98895.73;;;-0.79;62.24
41102;BME280;26845;50.190;19.178;2023-03-03T03:26:10;98889.80;;;-0.78;61.91
41102;BME280;26845;50.190;19.178;2023-03-03T03:28:37;98883.98;;;-0.77;62.36
41102;BME280;26845;50.190;19.178;2023-03-03T03:31:03;98882.67;;;-0.76;62.40
41102;BME280;26845;50.190;19.178;2023-03-03T03:33:29;98889.13;;;-0.81;62.11
41102;BME280;26845;50.190;19.178;2023-03-03T03:35:56;98898.23;;;-0.84;62.15
41102;BME280;26845;50.190;19.178;2023-03-03T03:38:23;98893.02;;;-0.88;61.88
41102;BME280;26845;50.190;19.178;2023-03-03T03:40:48;98890.41;;;-0.90;62.01
41102;BME280;26845;50.190;19.178;2023-03-03T03:43:14;98890.21;;;-0.95;62.13
41102;BME280;26845;50.190;19.178;2023-03-03T03:45:41;98890.88;;;-0.96;62.09
41102;BME280;26845;50.190;19.178;2023-03-03T03:48:07;98887.98;;;-0.99;62.14
41102;BME280;26845;50.190;19.178;2023-03-03T03:50:34;98884.02;;;-1.00;62.10
41102;BME280;26845;50.190;19.178;2023-03-03T03:53:00;98881.94;;;-1.01;62.44
41102;BME280;26845;50.190;19.178;2023-03-03T03:55:26;98884.95;;;-1.00;62.43
41102;BME280;26845;50.190;19.178;2023-03-03T03:57:52;98884.94;;;-1.01;62.09
41102;BME280;26845;50.190;19.178;2023-03-03T04:00:18;98886.56;;;-1.02;62.42
41102;BME280;26845;50.190;19.178;2023-03-03T04:02:44;98884.17;;;-1.09;62.68
41102;BME280;26845;50.190;19.178;2023-03-03T04:05:10;98879.42;;;-1.23;62.16
41102;BME280;26845;50.190;19.178;2023-03-03T04:07:36;98882.70;;;-1.33;62.54
41102;BME280;26845;50.190;19.178;2023-03-03T04:10:03;98889.13;;;-1.33;62.56
41102;BME280;26845;50.190;19.178;2023-03-03T04:12:29;98898.29;;;-1.33;62.48
41102;BME280;26845;50.190;19.178;2023-03-03T04:15:00;98896.16;;;-1.33;62.50
41102;BME280;26845;50.190;19.178;2023-03-03T04:17:26;98903.80;;;-1.30;62.90
41102;BME280;26845;50.190;19.178;2023-03-03T04:19:52;98905.77;;;-1.32;62.90
41102;BME280;26845;50.190;19.178;2023-03-03T04:22:19;98904.31;;;-1.34;62.94
41102;BME280;26845;50.190;19.178;2023-03-03T04:24:44;98903.35;;;-1.34;63.15
41102;BME280;26845;50.190;19.178;2023-03-03T04:27:13;98914.45;;;-1.32;63.10
41102;BME280;26845;50.190;19.178;2023-03-03T04:29:40;98915.98;;;-1.34;63.01
41102;BME280;26845;50.190;19.178;2023-03-03T04:32:06;98911.54;;;-1.33;63.22
41102;BME280;26845;50.190;19.178;2023-03-03T04:34:32;98906.94;;;-1.30;63.67
41102;BME280;26845;50.190;19.178;2023-03-03T04:36:58;98902.48;;;-1.25;63.72
41102;BME280;26845;50.190;19.178;2023-03-03T04:39:24;98900.45;;;-1.22;63.79
41102;BME280;26845;50.190;19.178;2023-03-03T04:41:51;98898.52;;;-1.21;63.90
41102;BME280;26845;50.190;19.178;2023-03-03T04:44:17;98898.36;;;-1.19;64.18
41102;BME280;26845;50.190;19.178;2023-03-03T04:46:43;98895.16;;;-1.20;63.97
41102;BME280;26845;50.190;19.178;2023-03-03T04:49:09;98894.60;;;-1.21;63.73
41102;BME280;26845;50.190;19.178;2023-03-03T04:51:35;98895.91;;;-1.21;64.01
41102;BME280;26845;50.190;19.178;2023-03-03T04:54:02;98897.83;;;-1.23;63.74
41102;BME280;26845;50.190;19.178;2023-03-03T04:56:29;98893.70;;;-1.24;63.83
41102;BME280;26845;50.190;19.178;2023-03-03T04:58:55;98889.29;;;-1.26;64.19
41102;BME280;26845;50.190;19.178;2023-03-03T05:01:21;98886.76;;;-1.30;63.96
41102;BME280;26845;50.190;19.178;2023-03-03T05:03:47;98884.88;;;-1.32;63.89
41102;BME280;26845;50.190;19.178;2023-03-03T05:06:14;98882.48;;;-1.36;64.00
41102;BME280;26845;50.190;19.178;2023-03-03T05:08:40;98887.80;;;-1.41;63.71
41102;BME280;26845;50.190;19.178;2023-03-03T05:11:07;98889.80;;;-1.45;63.75
41102;BME280;26845;50.190;19.178;2023-03-03T05:13:33;98893.77;;;-1.47;63.75
41102;BME280;26845;50.190;19.178;2023-03-03T05:15:59;98886.79;;;-1.50;63.92
41102;BME280;26845;50.190;19.178;2023-03-03T05:18:25;98886.50;;;-1.55;63.70
41102;BME280;26845;50.190;19.178;2023-03-03T05:20:52;98893.27;;;-1.59;63.66
41102;BME280;26845;50.190;19.178;2023-03-03T05:23:19;98899.42;;;-1.61;63.50
41102;BME280;26845;50.190;19.178;2023-03-03T05:25:49;98904.17;;;-1.61;63.70
41102;BME280;26845;50.190;19.178;2023-03-03T05:28:15;98911.09;;;-1.64;63.52
41102;BME280;26845;50.190;19.178;2023-03-03T05:30:41;98912.55;;;-1.66;63.36
41102;BME280;26845;50.190;19.178;2023-03-03T05:33:07;98927.23;;;-1.69;63.39
41102;BME280;26845;50.190;19.178;2023-03-03T05:35:33;98932.02;;;-1.71;63.45
41102;BME280;26845;50.190;19.178;2023-03-03T05:37:59;98927.99;;;-1.74;63.42
41102;BME280;26845;50.190;19.178;2023-03-03T05:40:25;98926.05;;;-1.85;63.72
41102;BME280;26845;50.190;19.178;2023-03-03T05:42:51;98925.23;;;-1.87;63.77
41102;BME280;26845;50.190;19.178;2023-03-03T05:45:19;98928.02;;;-1.86;64.16
41102;BME280;26845;50.190;19.178;2023-03-03T05:47:52;98935.08;;;-1.83;64.21
41102;BME280;26845;50.190;19.178;2023-03-03T05:50:19;98940.16;;;-1.82;64.07
41102;BME280;26845;50.190;19.178;2023-03-03T05:52:51;98948.46;;;-1.90;63.99
41102;BME280;26845;50.190;19.178;2023-03-03T05:55:17;98949.41;;;-1.93;64.26
41102;BME280;26845;50.190;19.178;2023-03-03T05:57:43;98948.92;;;-1.93;64.86
41102;BME280;26845;50.190;19.178;2023-03-03T06:00:10;98952.19;;;-1.91;65.15
41102;BME280;26845;50.190;19.178;2023-03-03T06:02:36;98956.23;;;-1.93;64.96
41102;BME280;26845;50.190;19.178;2023-03-03T06:05:05;98958.38;;;-1.88;65.55
41102;BME280;26845;50.190;19.178;2023-03-03T06:07:31;98957.59;;;-1.80;65.35
41102;BME280;26845;50.190;19.178;2023-03-03T06:09:58;98954.73;;;-1.73;65.73
41102;BME280;26845;50.190;19.178;2023-03-03T06:12:23;98958.83;;;-1.67;65.90
41102;BME280;26845;50.190;19.178;2023-03-03T06:14:49;98962.52;;;-1.60;66.20
41102;BME280;26845;50.190;19.178;2023-03-03T06:17:18;98973.29;;;-1.57;65.92
41102;BME280;26845;50.190;19.178;2023-03-03T06:19:44;98971.21;;;-1.53;66.37
41102;BME280;26845;50.190;19.178;2023-03-03T06:22:11;98967.34;;;-1.47;66.22
41102;BME280;26845;50.190;19.178;2023-03-03T06:24:37;98972.22;;;-1.43;66.26
41102;BME280;26845;50.190;19.178;2023-03-03T06:27:03;98973.93;;;-1.40;66.31
41102;BME280;26845;50.190;19.178;2023-03-03T06:29:29;98971.34;;;-1.32;66.18
41102;BME280;26845;50.190;19.178;2023-03-03T06:31:55;98976.86;;;-1.23;66.33
41102;BME280;26845;50.190;19.178;2023-03-03T06:34:21;98967.38;;;-1.14;66.57
41102;BME280;26845;50.190;19.178;2023-03-03T06:36:47;98966.27;;;-1.06;66.60
41102;BME280;26845;50.190;19.178;2023-03-03T06:39:14;98969.39;;;-0.97;66.54
41102;BME280;26845;50.190;19.178;2023-03-03T06:41:40;98972.67;;;-0.89;66.62
41102;BME280;26845;50.190;19.178;2023-03-03T06:44:06;98978.84;;;-0.82;66.82
41102;BME280;26845;50.190;19.178;2023-03-03T06:46:32;98959.71;;;-0.74;66.67
41102;BME280;26845;50.190;19.178;2023-03-03T06:48:58;98955.21;;;-0.64;66.75
41102;BME280;26845;50.190;19.178;2023-03-03T06:51:30;98957.75;;;-0.55;66.81
41102;BME280;26845;50.190;19.178;2023-03-03T06:53:57;98972.33;;;-0.51;66.98
41102;BME280;26845;50.190;19.178;2023-03-03T06:56:26;98966.17;;;-0.48;67.07
41102;BME280;26845;50.190;19.178;2023-03-03T06:58:53;98962.98;;;-0.40;67.21
41102;BME280;26845;50.190;19.178;2023-03-03T07:01:20;98971.14;;;-0.36;67.02
41102;BME280;26845;50.190;19.178;2023-03-03T07:03:47;98979.08;;;-0.36;67.23
41102;BME280;26845;50.190;19.178;2023-03-03T07:06:20;98989.56;;;-0.33;67.40
41102;BME280;26845;50.190;19.178;2023-03-03T07:08:47;98977.73;;;-0.30;67.32
41102;BME280;26845;50.190;19.178;2023-03-03T07:11:15;98974.71;;;-0.25;67.30
41102;BME280;26845;50.190;19.178;2023-03-03T07:13:47;98975.27;;;-0.18;67.46
41102;BME280;26845;50.190;19.178;2023-03-03T07:16:15;98977.43;;;-0.17;67.56
41102;BME280;26845;50.190;19.178;2023-03-03T07:18:51;98974.04;;;-0.12;67.50
41102;BME280;26845;50.190;19.178;2023-03-03T07:21:30;98971.95;;;-0.07;67.63
41102;BME280;26845;50.190;19.178;2023-03-03T07:23:58;98976.20;;;-0.07;67.66
41102;BME280;26845;50.190;19.178;2023-03-03T07:26:28;98968.46;;;-0.07;67.59
41102;BME280;26845;50.190;19.178;2023-03-03T07:31:35;98967.15;;;0.11;67.84
41102;BME280;26845;50.190;19.178;2023-03-03T07:34:22;98973.64;;;0.19;68.01
41102;BME280;26845;50.190;19.178;2023-03-03T07:36:57;98976.96;;;0.27;68.06
41102;BME280;26845;50.190;19.178;2023-03-03T07:39:30;98982.05;;;0.31;68.02
41102;BME280;26845;50.190;19.178;2023-03-03T07:45:25;98988.88;;;0.39;68.22
41102;BME280;26845;50.190;19.178;2023-03-03T07:47:51;98988.80;;;0.32;68.48
41102;BME280;26845;50.190;19.178;2023-03-03T07:50:26;98987.52;;;0.19;68.27
41102;BME280;26845;50.190;19.178;2023-03-03T07:52:56;98984.72;;;0.18;68.53
41102;BME280;26845;50.190;19.178;2023-03-03T07:55:32;98972.87;;;0.24;68.84
41102;BME280;26845;50.190;19.178;2023-03-03T07:58:14;98967.14;;;0.31;68.90
41102;BME280;26845;50.190;19.178;2023-03-03T08:03:19;98969.48;;;0.27;68.87
41102;BME280;26845;50.190;19.178;2023-03-03T08:05:49;98984.71;;;0.30;69.59
41102;BME280;26845;50.190;19.178;2023-03-03T08:08:28;98990.84;;;0.30;69.60
41102;BME280;26845;50.190;19.178;2023-03-03T08:10:57;99001.95;;;0.39;69.44
41102;BME280;26845;50.190;19.178;2023-03-03T08:15:51;98994.79;;;0.48;69.28
41102;BME280;26845;50.190;19.178;2023-03-03T08:18:35;98975.98;;;0.49;69.07
41102;BME280;26845;50.190;19.178;2023-03-03T08:21:12;98976.13;;;0.51;69.20
41102;BME280;26845;50.190;19.178;2023-03-03T08:23:38;98987.60;;;0.54;68.94
41102;BME280;26845;50.190;19.178;2023-03-03T08:26:05;98990.95;;;0.51;68.88
41102;BME280;26845;50.190;19.178;2023-03-03T08:28:31;98988.16;;;0.48;69.02
41102;BME280;26845;50.190;19.178;2023-03-03T08:30:57;98994.00;;;0.44;68.95
41102;BME280;26845;50.190;19.178;2023-03-03T08:33:23;98999.64;;;0.42;68.89
41102;BME280;26845;50.190;19.178;2023-03-03T08:35:49;99004.09;;;0.43;68.95
41102;BME280;26845;50.190;19.178;2023-03-03T08:38:18;99000.84;;;0.44;69.07
41102;BME280;26845;50.190;19.178;2023-03-03T08:40:44;99001.42;;;0.40;69.04
41102;BME280;26845;50.190;19.178;2023-03-03T08:43:11;99010.80;;;0.36;69.04
41102;BME280;26845;50.190;19.178;2023-03-03T08:45:43;99012.92;;;0.36;69.14
41102;BME280;26845;50.190;19.178;2023-03-03T08:48:09;99015.08;;;0.38;69.17
41102;BME280;26845;50.190;19.178;2023-03-03T08:50:35;99016.04;;;0.44;69.37
41102;BME280;26845;50.190;19.178;2023-03-03T08:53:01;99027.38;;;0.48;69.45
41102;BME280;26845;50.190;19.178;2023-03-03T08:55:27;99028.92;;;0.52;69.40
41102;BME280;26845;50.190;19.178;2023-03-03T08:57:53;99025.23;;;0.56;69.67
41102;BME280;26845;50.190;19.178;2023-03-03T09:00:19;99030.42;;;0.55;69.48
41102;BME280;26845;50.190;19.178;2023-03-03T09:02:46;99023.02;;;0.55;69.57
41102;BME280;26845;50.190;19.178;2023-03-03T09:05:12;99018.29;;;0.53;69.53
41102;BME280;26845;50.190;19.178;2023-03-03T09:07:39;99018.59;;;0.52;69.46
41102;BME280;26845;50.190;19.178;2023-03-03T09:10:07;99020.77;;;0.46;69.60
41102;BME280;26845;50.190;19.178;2023-03-03T09:12:37;99016.86;;;0.41;69.59
41102;BME280;26845;50.190;19.178;2023-03-03T09:15:30;98995.55;;;0.39;69.71
41102;BME280;26845;50.190;19.178;2023-03-03T09:17:59;98997.79;;;0.30;70.16
41102;BME280;26845;50.190;19.178;2023-03-03T09:20:33;99005.98;;;0.27;70.12
41102;BME280;26845;50.190;19.178;2023-03-03T09:26:28;99009.95;;;0.34;70.97
41102;BME280;26845;50.190;19.178;2023-03-03T09:29:39;99011.48;;;0.20;70.58
41102;BME280;26845;50.190;19.178;2023-03-03T09:32:21;99011.50;;;0.11;70.64
41102;BME280;26845;50.190;19.178;2023-03-03T09:34:48;99012.46;;;0.03;70.48
41102;BME280;26845;50.190;19.178;2023-03-03T09:37:40;99013.92;;;0.01;70.83
41102;BME280;26845;50.190;19.178;2023-03-03T09:48:51;99013.77;;;-0.22;72.08
41102;BME280;26845;50.190;19.178;2023-03-03T09:51:31;99015.82;;;-0.29;72.51
41102;BME280;26845;50.190;19.178;2023-03-03T09:56:42;99010.96;;;-0.31;72.44
41102;BME280;26845;50.190;19.178;2023-03-03T10:05:04;99036.95;;;-0.09;72.48
41102;BME280;26845;50.190;19.178;2023-03-03T10:07:54;99039.39;;;-0.01;72.45
41102;BME280;26845;50.190;19.178;2023-03-03T10:11:12;99042.59;;;-0.02;73.46
41102;BME280;26845;50.190;19.178;2023-03-03T10:17:14;99030.58;;;-0.33;74.53
41102;BME280;26845;50.190;19.178;2023-03-03T10:20:27;99023.45;;;-0.45;76.40
41102;BME280;26845;50.190;19.178;2023-03-03T10:23:05;99029.70;;;-0.58;75.70
41102;BME280;26845;50.190;19.178;2023-03-03T10:25:48;99037.27;;;-0.56;75.01
41102;BME280;26845;50.190;19.178;2023-03-03T10:31:20;99039.92;;;-0.38;74.69
41102;BME280;26845;50.190;19.178;2023-03-03T10:47:59;99048.54;;;-0.19;74.74
41102;BME280;26845;50.190;19.178;2023-03-03T10:54:03;99045.41;;;-0.06;77.02
41102;BME280;26845;50.190;19.178;2023-03-03T10:59:40;99046.69;;;-0.08;75.20
41102;BME280;26845;50.190;19.178;2023-03-03T11:03:16;99050.77;;;-0.03;75.16
41102;BME280;26845;50.190;19.178;2023-03-03T11:05:50;99045.27;;;0.03;74.92
41102;BME280;26845;50.190;19.178;2023-03-03T11:17:31;99038.23;;;0.31;74.36
41102;BME280;26845;50.190;19.178;2023-03-03T11:20:05;99033.05;;;0.37;74.44
41102;BME280;26845;50.190;19.178;2023-03-03T11:22:58;99030.35;;;0.31;74.79
41102;BME280;26845;50.190;19.178;2023-03-03T11:25:43;99038.45;;;0.29;74.40
41102;BME280;26845;50.190;19.178;2023-03-03T11:33:26;99035.68;;;0.13;74.37
41102;BME280;26845;50.190;19.178;2023-03-03T11:36:30;99033.36;;;0.14;75.15
41102;BME280;26845;50.190;19.178;2023-03-03T11:38:59;99035.38;;;0.09;76.01
41102;BME280;26845;50.190;19.178;2023-03-03T11:45:12;99026.95;;;-0.12;77.08
41102;BME280;26845;50.190;19.178;2023-03-03T11:48:00;99030.64;;;-0.15;76.08
41102;BME280;26845;50.190;19.178;2023-03-03T11:50:35;99026.65;;;-0.12;76.05
41102;BME280;26845;50.190;19.178;2023-03-03T11:54:02;99027.98;;;-0.03;75.85
41102;BME280;26845;50.190;19.178;2023-03-03T12:02:47;99024.93;;;0.33;75.15
41102;BME280;26845;50.190;19.178;2023-03-03T12:05:42;99021.02;;;0.44;76.02
41102;BME280;26845;50.190;19.178;2023-03-03T12:08:17;99016.66;;;0.31;76.52
41102;BME280;26845;50.190;19.178;2023-03-03T12:10:56;99019.59;;;0.20;75.72
41102;BME280;26845;50.190;19.178;2023-03-03T12:13:49;99025.27;;;0.21;75.71
41102;BME280;26845;50.190;19.178;2023-03-03T12:16:44;99025.23;;;0.20;76.06
41102;BME280;26845;50.190;19.178;2023-03-03T12:19:26;99026.09;;;0.11;78.10
41102;BME280;26845;50.190;19.178;2023-03-03T12:22:22;99019.48;;;-0.00;78.84
41102;BME280;26845;50.190;19.178;2023-03-03T12:25:40;99013.39;;;-0.04;77.42
41102;BME280;26845;50.190;19.178;2023-03-03T12:28:19;99012.71;;;-0.05;77.12
41102;BME280;26845;50.190;19.178;2023-03-03T12:33:49;99005.26;;;-0.01;79.22
41102;BME280;26845;50.190;19.178;2023-03-03T12:39:22;99000.30;;;-0.08;77.66
41102;BME280;26845;50.190;19.178;2023-03-03T12:44:44;99003.58;;;-0.08;79.19
41102;BME280;26845;50.190;19.178;2023-03-03T12:53:29;98995.11;;;-0.13;79.22
41102;BME280;26845;50.190;19.178;2023-03-03T12:56:11;98994.30;;;-0.14;78.94
41102;BME280;26845;50.190;19.178;2023-03-03T13:04:10;98993.08;;;-0.22;79.85
41102;BME280;26845;50.190;19.178;2023-03-03T13:07:01;98989.48;;;-0.18;79.57
41102;BME280;26845;50.190;19.178;2023-03-03T13:12:27;98983.78;;;-0.14;80.19
41102;BME280;26845;50.190;19.178;2023-03-03T13:18:13;98981.54;;;-0.14;80.32
41102;BME280;26845;50.190;19.178;2023-03-03T13:20:50;98981.21;;;-0.11;79.75
41102;BME280;26845;50.190;19.178;2023-03-03T13:26:19;98984.80;;;-0.09;80.79
41102;BME280;26845;50.190;19.178;2023-03-03T13:28:57;98987.70;;;-0.12;80.16
41102;BME280;26845;50.190;19.178;2023-03-03T13:31:35;98986.06;;;-0.09;78.86
41102;BME280;26845;50.190;19.178;2023-03-03T13:34:03;98986.63;;;0.01;79.15
41102;BME280;26845;50.190;19.178;2023-03-03T13:36:52;98989.79;;;0.03;79.37
41102;BME280;26845;50.190;19.178;2023-03-03T13:39:27;98983.80;;;0.01;79.00
41102;BME280;26845;50.190;19.178;2023-03-03T13:42:04;98978.35;;;0.05;78.54
41102;BME280;26845;50.190;19.178;2023-03-03T13:44:38;98980.70;;;0.08;78.52
41102;BME280;26845;50.190;19.178;2023-03-03T13:47:13;98976.34;;;0.10;78.35
41102;BME280;26845;50.190;19.178;2023-03-03T13:52:45;98979.00;;;0.19;78.45
41102;BME280;26845;50.190;19.178;2023-03-03T13:55:50;98977.08;;;0.18;78.78
41102;BME280;26845;50.190;19.178;2023-03-03T13:58:31;98977.25;;;0.10;79.41
41102;BME280;26845;50.190;19.178;2023-03-03T14:06:30;98975.24;;;0.20;77.74
41102;BME280;26845;50.190;19.178;2023-03-03T14:09:23;98982.54;;;0.27;78.47
41102;BME280;26845;50.190;19.178;2023-03-03T14:15:10;98976.77;;;0.19;78.43
41102;BME280;26845;50.190;19.178;2023-03-03T14:20:40;98967.37;;;0.14;79.54
41102;BME280;26845;50.190;19.178;2023-03-03T14:23:22;98967.41;;;0.10;79.37
41102;BME280;26845;50.190;19.178;2023-03-03T14:26:09;98965.71;;;0.07;79.39
41102;BME280;26845;50.190;19.178;2023-03-03T14:28:42;98961.47;;;0.05;78.62
41102;BME280;26845;50.190;19.178;2023-03-03T14:31:26;98965.52;;;0.08;78.83
41102;BME280;26845;50.190;19.178;2023-03-03T14:36:35;98965.23;;;0.06;78.44
41102;BME280;26845;50.190;19.178;2023-03-03T14:45:37;98967.73;;;0.10;78.53
41102;BME280;26845;50.190;19.178;2023-03-03T14:48:23;98961.84;;;0.13;78.01
41102;BME280;26845;50.190;19.178;2023-03-03T14:53:31;98959.54;;;0.22;77.59
41102;BME280;26845;50.190;19.178;2023-03-03T14:56:23;98962.73;;;0.27;77.55
41102;BME280;26845;50.190;19.178;2023-03-03T14:58:51;98959.05;;;0.32;77.54
41102;BME280;26845;50.190;19.178;2023-03-03T15:01:30;98957.75;;;0.39;77.32
41102;BME280;26845;50.190;19.178;2023-03-03T15:06:40;98956.91;;;0.47;77.39
41102;BME280;26845;50.190;19.178;2023-03-03T15:09:45;98958.06;;;0.45;77.35
41102;BME280;26845;50.190;19.178;2023-03-03T15:12:39;98957.42;;;0.45;77.24
41102;BME280;26845;50.190;19.178;2023-03-03T15:18:09;98952.50;;;0.49;77.37
41102;BME280;26845;50.190;19.178;2023-03-03T15:20:36;98953.69;;;0.41;77.57
41102;BME280;26845;50.190;19.178;2023-03-03T15:37:11;98952.49;;;0.06;78.33
41102;BME280;26845;50.190;19.178;2023-03-03T15:42:46;98945.47;;;0.03;78.02
41102;BME280;26845;50.190;19.178;2023-03-03T15:51:00;98955.52;;;0.00;77.97
41102;BME280;26845;50.190;19.178;2023-03-03T15:56:55;98947.23;;;0.03;77.43
41102;BME280;26845;50.190;19.178;2023-03-03T16:02:14;98946.95;;;0.13;77.43
41102;BME280;26845;50.190;19.178;2023-03-03T16:05:15;98953.36;;;0.14;77.62
41102;BME280;26845;50.190;19.178;2023-03-03T16:07:38;98953.17;;;0.09;77.63
41102;BME280;26845;50.190;19.178;2023-03-03T16:12:56;98953.77;;;0.00;77.85
41102;BME280;26845;50.190;19.178;2023-03-03T16:18:31;98958.98;;;-0.13;78.59
41102;BME280;26845;50.190;19.178;2023-03-03T16:29:14;98965.75;;;-0.30;78.34
41102;BME280;26845;50.190;19.178;2023-03-03T16:31:55;98973.30;;;-0.30;78.32
41102;BME280;26845;50.190;19.178;2023-03-03T16:34:24;98974.50;;;-0.30;78.62
41102;BME280;26845;50.190;19.178;2023-03-03T16:37:30;98970.58;;;-0.29;78.38
41102;BME280;26845;50.190;19.178;2023-03-03T16:40:12;98975.27;;;-0.27;78.07